createdAt,value
2017-09-02T00:00:35.074Z,18.60
2017-09-02T00:03:02.636Z,18.57
2017-09-02T00:05:30.176Z,17.00
2017-09-02T00:07:57.718Z,17.40
2017-09-02T00:10:26.071Z,18.52
2017-09-02T00:12:53.605Z,18.57
2017-09-02T00:15:21.146Z,19.10
2017-09-02T00:17:48.711Z,19.00
2017-09-02T00:20:17.192Z,18.42
2017-09-02T00:22:44.735Z,18.92
2017-09-02T00:25:12.292Z,20.07
2017-09-02T00:27:40.598Z,17.90
2017-09-02T00:30:08.132Z,17.57
2017-09-02T00:32:35.732Z,18.40
2017-09-02T00:35:03.279Z,17.10
2017-09-02T00:37:30.820Z,19.37
2017-09-02T00:39:58.375Z,18.00
2017-09-02T00:42:26.016Z,18.17
2017-09-02T00:44:53.564Z,17.67
2017-09-02T00:47:21.900Z,17.53
2017-09-02T00:49:49.432Z,16.20
2017-09-02T00:52:16.967Z,17.73
2017-09-02T00:54:44.612Z,18.50
2017-09-02T00:57:12.616Z,17.60
2017-09-02T00:59:40.160Z,17.87
2017-09-02T01:02:07.753Z,19.00
2017-09-02T01:04:35.287Z,18.27
2017-09-02T01:07:03.584Z,17.57
2017-09-02T01:09:31.147Z,18.10
2017-09-02T01:11:58.680Z,17.20
2017-09-02T01:14:26.230Z,16.63
2017-09-02T01:16:54.088Z,16.90
2017-09-02T01:19:21.636Z,15.75
2017-09-02T01:21:49.187Z,16.53
2017-09-02T01:24:16.774Z,16.43
2017-09-02T01:26:44.307Z,17.20
2017-09-02T01:29:11.844Z,16.17
2017-09-02T01:31:39.408Z,14.85
2017-09-02T01:34:06.947Z,15.70
2017-09-02T01:36:34.487Z,15.63
2017-09-02T01:39:02.076Z,15.50
2017-09-02T01:41:29.619Z,16.00
2017-09-02T01:43:57.167Z,16.50
2017-09-02T01:46:24.732Z,16.85
2017-09-02T01:48:52.262Z,17.43
2017-09-02T01:51:19.835Z,17.25
2017-09-02T01:53:47.467Z,16.83
2017-09-02T01:56:17.238Z,16.10
2017-09-02T01:58:44.960Z,16.90
2017-09-02T02:01:12.587Z,17.47
2017-09-02T02:03:40.130Z,18.47
2017-09-02T02:06:07.671Z,16.90
2017-09-02T02:08:35.263Z,16.70
2017-09-02T02:11:02.810Z,17.53
2017-09-02T02:13:30.360Z,17.57
2017-09-02T02:15:57.930Z,17.37
2017-09-02T02:18:25.463Z,18.62
2017-09-02T02:20:52.996Z,18.37
2017-09-02T02:23:20.614Z,16.70
2017-09-02T02:25:48.169Z,16.00
2017-09-02T02:28:16.507Z,16.25
2017-09-02T02:30:44.073Z,16.57
2017-09-02T02:33:12.375Z,16.10
2017-09-02T02:35:39.919Z,14.50
2017-09-02T02:38:08.244Z,16.98
2017-09-02T02:40:35.775Z,15.60
2017-09-02T02:43:03.311Z,16.40
2017-09-02T02:45:30.903Z,15.10
2017-09-02T02:47:58.446Z,15.23
2017-09-02T02:50:25.992Z,15.80
2017-09-02T02:52:53.564Z,15.15
2017-09-02T02:55:21.112Z,15.50
2017-09-02T02:57:48.656Z,15.53
2017-09-02T03:00:16.908Z,15.38
2017-09-02T03:02:44.443Z,15.50
2017-09-02T03:05:11.983Z,16.40
2017-09-02T03:07:39.580Z,16.17
2017-09-02T03:10:07.128Z,15.50
2017-09-02T03:12:34.676Z,15.90
2017-09-02T03:15:02.281Z,17.40
2017-09-02T03:17:29.818Z,15.20
2017-09-02T03:19:57.356Z,16.93
2017-09-02T03:22:24.917Z,16.90
2017-09-02T03:24:52.460Z,16.73
2017-09-02T03:27:20.005Z,15.68
2017-09-02T03:29:47.591Z,15.80
2017-09-02T03:32:17.213Z,17.30
2017-09-02T03:34:44.752Z,17.97
2017-09-02T03:37:12.334Z,18.43
2017-09-02T03:39:39.880Z,17.53
2017-09-02T03:42:07.421Z,17.83
2017-09-02T03:44:35.751Z,19.23
2017-09-02T03:47:03.289Z,18.63
2017-09-02T03:49:30.831Z,18.30
2017-09-02T03:51:58.443Z,17.93
2017-09-02T03:54:25.980Z,18.40
2017-09-02T03:56:53.512Z,18.47
2017-09-02T03:59:21.082Z,19.13
2017-09-02T04:01:49.127Z,19.50
2017-09-02T04:04:17.431Z,20.10
2017-09-02T04:06:44.992Z,19.80
2017-09-02T04:09:12.530Z,19.70
2017-09-02T04:11:40.067Z,19.20
2017-09-02T04:14:07.661Z,20.77
2017-09-02T04:16:35.207Z,19.90
2017-09-02T04:19:03.513Z,20.03
2017-09-02T04:21:31.099Z,21.80
2017-09-02T04:23:58.643Z,18.87
2017-09-02T04:26:26.179Z,18.73
2017-09-02T04:28:53.752Z,19.20
2017-09-02T04:31:21.283Z,19.24
2017-09-02T04:33:48.819Z,18.67
2017-09-02T04:36:17.299Z,20.33
2017-09-02T04:38:44.839Z,18.17
2017-09-02T04:41:12.373Z,19.60
2017-09-02T04:43:39.940Z,19.03
2017-09-02T04:46:07.480Z,19.58
2017-09-02T04:48:35.012Z,20.80
2017-09-02T04:51:02.583Z,19.52
2017-09-02T04:53:30.129Z,19.40
2017-09-02T04:55:57.672Z,19.30
2017-09-02T04:58:25.273Z,19.67
2017-09-02T05:00:52.815Z,19.97
2017-09-02T05:03:21.076Z,19.25
2017-09-02T05:05:48.639Z,18.47
2017-09-02T05:08:17.276Z,19.87
2017-09-02T05:10:44.814Z,19.40
2017-09-02T05:13:12.393Z,20.35
2017-09-02T05:15:39.941Z,20.10
2017-09-02T05:18:07.483Z,20.30
2017-09-02T05:20:35.837Z,20.03
2017-09-02T05:23:03.383Z,19.62
2017-09-02T05:25:30.919Z,20.70
2017-09-02T05:27:58.684Z,20.30
2017-09-02T05:30:26.222Z,19.97
2017-09-02T05:32:53.767Z,20.30
2017-09-02T05:35:22.108Z,19.17
2017-09-02T05:37:49.643Z,19.73
2017-09-02T05:40:17.192Z,20.83
2017-09-02T05:42:44.783Z,20.87
2017-09-02T05:45:12.317Z,19.90
2017-09-02T05:47:39.848Z,19.10
2017-09-02T05:50:07.416Z,19.77
2017-09-02T05:52:34.997Z,18.73
2017-09-02T05:55:02.535Z,18.92
2017-09-02T05:57:30.099Z,18.90
2017-09-02T05:59:57.632Z,18.10
2017-09-02T06:02:25.928Z,17.45
2017-09-02T06:04:53.741Z,18.62
2017-09-02T06:07:21.279Z,19.65
2017-09-02T06:09:48.822Z,19.07
2017-09-02T06:12:16.479Z,20.27
2017-09-02T06:14:44.043Z,20.53
2017-09-02T06:17:11.609Z,20.95
2017-09-02T06:19:39.184Z,19.80
2017-09-02T06:22:06.730Z,19.90
2017-09-02T06:24:34.267Z,19.00
2017-09-02T06:27:01.852Z,18.90
2017-09-02T06:29:29.392Z,19.90
2017-09-02T06:31:56.927Z,19.10
2017-09-02T06:34:24.503Z,18.80
2017-09-02T06:36:52.812Z,19.00
2017-09-02T06:39:20.343Z,17.80
2017-09-02T06:41:47.927Z,18.37
2017-09-02T06:44:16.471Z,17.67
2017-09-02T06:46:44.008Z,17.33
2017-09-02T06:49:11.602Z,18.70
2017-09-02T06:51:39.160Z,17.53
2017-09-02T06:54:06.703Z,17.03
2017-09-02T06:56:34.272Z,19.30
2017-09-02T06:59:01.888Z,19.83
2017-09-02T07:01:29.422Z,16.67
2017-09-02T07:03:57.003Z,18.57
2017-09-02T07:06:25.051Z,17.73
2017-09-02T07:08:52.596Z,17.50
2017-09-02T07:11:20.957Z,17.83
2017-09-02T07:13:48.487Z,16.40
2017-09-02T07:16:16.467Z,18.20
2017-09-02T07:18:44.040Z,17.50
2017-09-02T07:21:11.579Z,16.20
2017-09-02T07:23:39.128Z,16.40
2017-09-02T07:26:06.691Z,17.07
2017-09-02T07:28:34.240Z,15.27
2017-09-02T07:31:01.775Z,16.70
2017-09-02T07:33:29.400Z,14.90
2017-09-02T07:35:56.940Z,16.70
2017-09-02T07:38:24.492Z,15.23
2017-09-02T07:40:52.047Z,15.60
2017-09-02T07:43:19.583Z,15.07
2017-09-02T07:45:47.118Z,14.97
2017-09-02T07:48:16.268Z,16.05
2017-09-02T07:50:43.809Z,15.23
2017-09-02T07:53:11.354Z,15.00
2017-09-02T07:55:38.963Z,13.77
2017-09-02T07:58:06.509Z,15.60
2017-09-02T08:00:34.044Z,13.43
2017-09-02T08:03:01.703Z,12.83
2017-09-02T08:05:29.251Z,14.40
2017-09-02T08:07:57.548Z,12.37
2017-09-02T08:10:25.143Z,12.90
2017-09-02T08:12:52.713Z,11.50
2017-09-02T08:15:20.268Z,12.40
2017-09-02T08:17:47.863Z,11.87
2017-09-02T08:20:15.478Z,12.27
2017-09-02T08:22:43.011Z,12.17
2017-09-02T08:25:10.572Z,12.40
2017-09-02T08:27:38.108Z,11.40
2017-09-02T08:30:05.663Z,10.60
2017-09-02T08:32:33.230Z,11.63
2017-09-02T08:35:00.781Z,11.37
2017-09-02T08:37:28.338Z,11.57
2017-09-02T08:39:55.951Z,11.57
2017-09-02T08:42:23.486Z,10.90
2017-09-02T08:44:51.149Z,10.67
2017-09-02T08:47:18.807Z,11.88
2017-09-02T08:49:46.363Z,11.40
2017-09-02T08:52:24.588Z,10.00
2017-09-02T08:59:13.022Z,10.70
2017-09-02T09:01:40.573Z,10.82
2017-09-02T09:04:08.181Z,10.27
2017-09-02T09:06:35.849Z,10.87
2017-09-02T09:09:03.982Z,12.00
2017-09-02T09:11:32.424Z,11.23
2017-09-02T09:14:00.648Z,10.77
2017-09-02T09:16:28.190Z,11.73
2017-09-02T09:18:55.728Z,9.63
2017-09-02T09:21:23.325Z,9.10
2017-09-02T09:23:50.860Z,8.90
2017-09-02T09:26:18.391Z,9.67
2017-09-02T09:28:45.950Z,7.40
2017-09-02T09:31:23.767Z,6.95
2017-09-02T09:37:00.728Z,6.27
2017-09-02T09:39:28.264Z,6.28
2017-09-02T09:41:55.800Z,6.57
2017-09-02T09:44:23.397Z,7.10
2017-09-02T09:46:50.927Z,6.00
2017-09-02T09:49:18.510Z,7.40
2017-09-02T09:51:46.063Z,8.20
2017-09-02T09:54:14.608Z,6.77
2017-09-02T09:56:42.192Z,8.03
2017-09-02T09:59:09.809Z,6.47
2017-09-02T10:01:38.140Z,6.13
2017-09-02T10:04:05.766Z,5.50
2017-09-02T10:06:33.420Z,5.20
2017-09-02T10:09:00.987Z,5.30
2017-09-02T10:11:28.963Z,5.72
2017-09-02T10:13:56.523Z,5.87
2017-09-02T10:16:24.161Z,4.90
2017-09-02T10:18:51.764Z,4.20
2017-09-02T10:21:19.467Z,3.90
2017-09-02T10:23:47.026Z,4.23
2017-09-02T10:26:25.632Z,3.90
2017-09-02T10:32:31.384Z,4.40
2017-09-02T10:34:59.726Z,4.37
2017-09-02T10:37:27.297Z,4.80
2017-09-02T10:39:54.948Z,4.77
2017-09-02T10:42:22.517Z,4.97
2017-09-02T10:44:50.139Z,4.60
2017-09-02T10:47:17.764Z,4.97
2017-09-02T10:49:45.393Z,4.87
2017-09-02T10:52:23.576Z,5.07
2017-09-02T10:57:46.064Z,4.90
2017-09-02T11:00:15.389Z,4.12
2017-09-02T11:02:42.987Z,5.23
2017-09-02T11:05:10.630Z,4.70
2017-09-02T11:07:38.207Z,5.50
2017-09-02T11:10:05.780Z,20.13
2017-09-02T11:12:33.930Z,6.87
2017-09-02T11:15:01.555Z,5.47
2017-09-02T11:17:29.128Z,5.20
2017-09-02T11:19:56.752Z,5.40
2017-09-02T11:22:24.299Z,5.53
2017-09-02T11:24:51.948Z,5.90
2017-09-02T11:27:20.493Z,5.30
2017-09-02T11:29:48.059Z,5.27
2017-09-02T11:32:17.378Z,6.30
2017-09-02T11:34:45.766Z,5.47
2017-09-02T11:37:15.384Z,5.85
2017-09-02T11:39:42.977Z,5.50
2017-09-02T11:42:10.598Z,5.10
2017-09-02T11:44:38.217Z,5.70
2017-09-02T11:47:05.805Z,6.20
2017-09-02T11:49:33.396Z,5.97
2017-09-02T11:52:00.939Z,6.40
2017-09-02T11:54:28.684Z,5.70
2017-09-02T11:56:57.010Z,6.53
2017-09-02T11:59:24.591Z,5.80
2017-09-02T12:01:52.176Z,6.60
2017-09-02T12:04:19.794Z,5.95
2017-09-02T12:06:47.335Z,5.87
2017-09-02T12:09:16.438Z,5.95
2017-09-02T12:11:43.988Z,6.47
2017-09-02T12:14:11.954Z,6.00
2017-09-02T12:16:39.575Z,6.00
2017-09-02T12:19:07.151Z,6.80
2017-09-02T12:21:35.474Z,5.03
2017-09-02T12:24:03.060Z,5.53
2017-09-02T12:26:30.655Z,6.55
2017-09-02T12:28:59.043Z,6.10
2017-09-02T12:31:26.683Z,7.47
2017-09-02T12:33:54.241Z,7.27
2017-09-02T12:36:21.771Z,6.40
2017-09-02T12:38:49.416Z,6.60
2017-09-02T12:41:17.040Z,5.30
2017-09-02T12:43:44.644Z,4.97
2017-09-02T12:46:12.219Z,4.77
2017-09-02T12:48:39.976Z,4.43
2017-09-02T12:51:07.550Z,4.80
2017-09-02T12:53:35.165Z,5.00
2017-09-02T12:56:02.765Z,5.27
2017-09-02T12:58:30.299Z,5.47
2017-09-02T13:00:57.942Z,6.50
2017-09-02T13:03:25.588Z,6.10
2017-09-02T13:05:53.129Z,6.50
2017-09-02T13:08:20.738Z,6.75
2017-09-02T13:10:48.355Z,6.93
2017-09-02T13:13:16.437Z,7.87
2017-09-02T13:15:44.204Z,9.60
2017-09-02T13:18:11.768Z,8.47
2017-09-02T13:20:39.299Z,8.60
2017-09-02T13:23:06.844Z,7.90
2017-09-02T13:25:34.414Z,9.40
2017-09-02T13:28:01.951Z,9.77
2017-09-02T13:30:29.492Z,9.75
2017-09-02T13:32:57.080Z,10.10
2017-09-02T13:35:24.611Z,9.33
2017-09-02T13:37:52.156Z,7.97
2017-09-02T13:40:19.717Z,7.45
2017-09-02T13:42:47.268Z,8.00
2017-09-02T13:45:16.627Z,8.38
2017-09-02T13:47:44.188Z,7.83
2017-09-02T13:50:11.771Z,7.67
2017-09-02T13:52:40.091Z,7.30
2017-09-02T13:55:07.768Z,6.60
2017-09-02T13:57:35.305Z,7.20
2017-09-02T14:00:02.831Z,5.90
2017-09-02T14:02:30.427Z,7.35
2017-09-02T14:04:57.956Z,6.97
2017-09-02T14:07:25.493Z,8.00
2017-09-02T14:09:53.051Z,7.50
2017-09-02T14:12:20.578Z,9.07
2017-09-02T14:14:48.111Z,9.47
2017-09-02T14:17:16.739Z,9.10
2017-09-02T14:19:44.273Z,8.70
2017-09-02T14:22:11.821Z,8.23
2017-09-02T14:24:39.441Z,7.18
2017-09-02T14:27:06.969Z,8.20
2017-09-02T14:29:34.500Z,8.23
2017-09-02T14:32:02.090Z,8.03
2017-09-02T14:34:29.638Z,8.30
2017-09-02T14:36:57.199Z,7.67
2017-09-02T14:39:24.808Z,6.87
2017-09-02T14:41:52.434Z,4.43
2017-09-02T14:44:19.985Z,5.12
2017-09-02T14:46:47.547Z,5.70
2017-09-02T14:49:16.318Z,6.50
2017-09-02T14:51:43.895Z,8.17
2017-09-02T14:54:11.455Z,7.00
2017-09-02T14:56:39.014Z,7.73
2017-09-02T14:59:06.555Z,8.27
2017-09-02T15:01:34.131Z,7.93
2017-09-02T15:04:01.745Z,5.30
2017-09-02T15:06:29.275Z,4.67
2017-09-02T15:08:56.858Z,5.40
2017-09-02T15:11:24.391Z,4.80
2017-09-02T15:13:51.928Z,4.20
2017-09-02T15:16:19.532Z,4.28
2017-09-02T15:18:47.554Z,4.23
2017-09-02T15:21:17.200Z,5.27
2017-09-02T15:23:44.784Z,5.37
2017-09-02T15:26:12.360Z,5.97
2017-09-02T15:28:39.888Z,5.87
2017-09-02T15:31:07.516Z,6.47
2017-09-02T15:33:35.059Z,6.73
2017-09-02T15:36:02.593Z,7.90
2017-09-02T15:38:30.163Z,8.70
2017-09-02T15:40:58.575Z,8.47
2017-09-02T15:43:26.115Z,8.87
2017-09-02T15:45:53.724Z,8.13
2017-09-02T15:48:21.331Z,8.30
2017-09-02T15:50:48.857Z,8.33
2017-09-02T15:53:16.439Z,8.07
2017-09-02T15:55:43.979Z,8.20
2017-09-02T15:58:11.632Z,9.80
2017-09-02T16:00:39.187Z,9.27
2017-09-02T16:03:06.719Z,9.20
2017-09-02T16:05:34.247Z,9.33
2017-09-02T16:08:01.990Z,8.00
2017-09-02T16:10:29.553Z,8.20
2017-09-02T16:12:57.099Z,8.77
2017-09-02T16:15:24.738Z,10.07
2017-09-02T16:17:52.343Z,9.70
2017-09-02T16:20:20.583Z,10.15
2017-09-02T16:22:48.228Z,9.70
2017-09-02T16:25:16.523Z,10.68
2017-09-02T16:27:44.047Z,8.73
2017-09-02T16:30:11.641Z,6.50
2017-09-02T16:32:39.189Z,6.50
2017-09-02T16:35:06.745Z,6.70
2017-09-02T16:37:34.307Z,6.50
2017-09-02T16:40:01.860Z,6.30
2017-09-02T16:42:29.402Z,6.17
2017-09-02T16:44:57.784Z,5.57
2017-09-02T16:47:25.366Z,5.93
2017-09-02T16:49:52.901Z,6.20
2017-09-02T16:52:20.494Z,6.80
2017-09-02T16:54:48.105Z,7.00
2017-09-02T16:57:16.384Z,7.03
2017-09-02T16:59:43.944Z,7.57
2017-09-02T17:02:11.488Z,6.90
2017-09-02T17:04:39.361Z,8.10
2017-09-02T17:07:06.941Z,9.13
2017-09-02T17:09:34.508Z,8.83
2017-09-02T17:12:02.067Z,10.30
2017-09-02T17:14:29.712Z,9.20
2017-09-02T17:16:58.020Z,8.97
2017-09-02T17:19:25.581Z,9.93
2017-09-02T17:21:53.668Z,9.10
2017-09-02T17:24:21.233Z,10.50
2017-09-02T17:26:48.783Z,10.10
2017-09-02T17:29:16.548Z,10.00
2017-09-02T17:31:44.148Z,9.70
2017-09-02T17:34:11.687Z,9.80
2017-09-02T17:36:39.268Z,10.10
2017-09-02T17:39:06.813Z,10.10
2017-09-02T17:41:34.398Z,10.23
2017-09-02T17:44:02.008Z,10.87
2017-09-02T17:46:29.543Z,9.95
2017-09-02T17:48:57.088Z,10.57
2017-09-02T17:51:25.413Z,10.95
2017-09-02T17:53:52.948Z,10.90
2017-09-02T17:56:20.500Z,11.60
2017-09-02T17:58:48.113Z,11.07
2017-09-02T18:01:16.427Z,10.80
2017-09-02T18:03:43.967Z,11.77
2017-09-02T18:06:11.559Z,10.68
2017-09-02T18:08:39.107Z,11.90
2017-09-02T18:11:06.639Z,10.27
2017-09-02T18:13:34.207Z,11.43
2017-09-02T18:16:01.744Z,10.60
2017-09-02T18:18:29.275Z,11.73
2017-09-02T18:20:56.966Z,11.90
2017-09-02T18:23:24.532Z,11.15
2017-09-02T18:25:52.066Z,11.20
2017-09-02T18:28:19.665Z,12.75
2017-09-02T18:30:47.205Z,13.10
2017-09-02T18:33:16.412Z,14.85
2017-09-02T18:35:43.996Z,15.70
2017-09-02T18:38:11.587Z,16.40
2017-09-02T18:40:39.131Z,16.80
2017-09-02T18:43:06.723Z,16.30
2017-09-02T18:45:34.256Z,16.77
2017-09-02T18:48:01.857Z,17.00
2017-09-02T18:50:29.428Z,16.97
2017-09-02T18:52:56.961Z,16.30
2017-09-02T18:55:24.507Z,16.08
2017-09-02T18:57:53.152Z,16.73
2017-09-02T19:00:20.683Z,17.50
2017-09-02T19:02:48.215Z,17.07
2017-09-02T19:05:16.552Z,15.30
2017-09-02T19:07:44.087Z,16.57
2017-09-02T19:10:11.632Z,17.20
2017-09-02T19:12:39.191Z,16.27
2017-09-02T19:15:06.743Z,15.93
2017-09-02T19:17:34.284Z,15.90
2017-09-02T19:20:01.979Z,15.23
2017-09-02T19:22:29.516Z,16.05
2017-09-02T19:24:57.588Z,15.70
2017-09-02T19:27:25.312Z,17.10
2017-09-02T19:29:52.860Z,17.00
2017-09-02T19:32:20.429Z,17.30
2017-09-02T19:34:48.032Z,17.17
2017-09-02T19:37:16.456Z,16.60
2017-09-02T19:39:44.045Z,15.60
2017-09-02T19:42:12.392Z,16.03
2017-09-02T19:44:39.941Z,15.50
2017-09-02T19:47:07.532Z,17.85
2017-09-02T19:49:35.168Z,16.73
2017-09-02T19:52:02.708Z,16.10
2017-09-02T19:54:30.262Z,17.43
2017-09-02T19:56:57.828Z,17.27
2017-09-02T19:59:25.440Z,17.50
2017-09-02T20:01:52.980Z,16.73
2017-09-02T20:04:20.543Z,17.07
2017-09-02T20:06:48.083Z,17.00
2017-09-02T20:09:16.523Z,16.85
2017-09-02T20:11:44.175Z,15.83
2017-09-02T20:14:11.824Z,16.37
2017-09-02T20:16:39.369Z,16.37
2017-09-02T20:19:06.924Z,15.17
2017-09-02T20:21:34.460Z,16.08
2017-09-02T20:24:02.000Z,15.20
2017-09-02T20:26:30.291Z,16.42
2017-09-02T20:28:58.018Z,17.20
2017-09-02T20:31:25.567Z,14.73
2017-09-02T20:33:53.192Z,15.20
2017-09-02T20:36:20.779Z,14.63
2017-09-02T20:38:49.095Z,15.97
2017-09-02T20:41:16.724Z,14.70
2017-09-02T20:43:44.303Z,13.77
2017-09-02T20:46:11.967Z,13.77
2017-09-02T20:48:39.589Z,14.43
2017-09-02T20:51:07.123Z,14.77
2017-09-02T20:53:34.663Z,13.70
2017-09-02T20:56:02.276Z,13.50
2017-09-02T20:58:29.876Z,13.90
2017-09-02T21:00:57.506Z,13.67
2017-09-02T21:03:25.085Z,13.27
2017-09-02T21:05:52.642Z,13.00
2017-09-02T21:08:20.992Z,12.80
2017-09-02T21:10:48.885Z,12.43
2017-09-02T21:13:16.439Z,13.57
2017-09-02T21:15:43.975Z,13.63
2017-09-02T21:18:11.637Z,12.57
2017-09-02T21:20:39.176Z,12.13
2017-09-02T21:23:06.715Z,12.77
2017-09-02T21:25:34.315Z,12.37
2017-09-02T21:28:02.208Z,13.23
2017-09-02T21:30:29.743Z,13.43
2017-09-02T21:32:57.309Z,12.70
2017-09-02T21:35:26.118Z,13.63
2017-09-02T21:37:53.653Z,12.87
2017-09-02T21:40:21.310Z,14.20
2017-09-02T21:42:48.897Z,13.40
2017-09-02T21:45:17.222Z,13.95
2017-09-02T21:47:44.839Z,13.53
2017-09-02T21:50:12.376Z,13.20
2017-09-02T21:52:39.918Z,15.50
2017-09-02T21:55:07.496Z,14.60
2017-09-02T21:57:35.040Z,14.17
2017-09-02T22:00:02.588Z,12.43
2017-09-02T22:02:30.173Z,12.83
2017-09-02T22:04:57.715Z,11.80
2017-09-02T22:07:25.280Z,12.35
2017-09-02T22:09:52.986Z,12.17
2017-09-02T22:12:20.524Z,12.33
2017-09-02T22:14:48.098Z,10.37
2017-09-02T22:17:17.191Z,11.10
2017-09-02T22:19:44.732Z,11.20
2017-09-02T22:22:12.264Z,12.07
2017-09-02T22:24:39.860Z,11.60
2017-09-02T22:27:07.391Z,10.97
2017-09-02T22:29:35.176Z,11.50
2017-09-02T22:32:02.781Z,11.23
2017-09-02T22:34:30.355Z,12.20
2017-09-02T22:36:57.909Z,12.90
2017-09-02T22:39:25.471Z,11.25
2017-09-02T22:41:53.015Z,10.80
2017-09-02T22:44:21.319Z,11.30
2017-09-02T22:46:48.916Z,11.20
2017-09-02T22:49:16.463Z,10.52
2017-09-02T22:51:43.995Z,11.53
2017-09-02T22:54:11.579Z,10.63
2017-09-02T22:56:39.111Z,11.23
2017-09-02T22:59:06.660Z,11.23
2017-09-02T23:01:34.330Z,11.20
2017-09-02T23:04:01.887Z,11.70
2017-09-02T23:06:29.427Z,11.95
2017-09-02T23:08:57.776Z,10.77
2017-09-02T23:11:25.318Z,11.73
2017-09-02T23:13:52.860Z,11.10
2017-09-02T23:16:20.419Z,11.27
2017-09-02T23:18:47.955Z,11.07
2017-09-02T23:21:16.357Z,11.40
2017-09-02T23:23:43.918Z,10.70
2017-09-02T23:26:11.460Z,10.55
2017-09-02T23:28:38.995Z,11.20
2017-09-02T23:31:06.592Z,10.68
2017-09-02T23:33:34.132Z,10.33
2017-09-02T23:36:01.676Z,12.33
2017-09-02T23:38:30.003Z,12.02
2017-09-02T23:40:57.539Z,12.18
2017-09-02T23:43:25.082Z,11.90
2017-09-02T23:45:52.643Z,10.90
2017-09-02T23:48:20.193Z,12.02
2017-09-02T23:50:47.735Z,12.30
2017-09-02T23:53:16.481Z,12.80
2017-09-02T23:55:44.014Z,13.00
2017-09-02T23:58:11.551Z,12.83
